Time;durP1;ratioP1;P1;durP2;ratioP2;P2;SDS_P1;SDS_P2;PMS_P1;PMS_P2;Temp;Humidity;BMP_temperature;BMP_pressure;BME280_temperature;BME280_humidity;BME280_pressure;Samples;Min_cycle;Max_cycle;Signal;HPM_P1;HPM_P2
2021/11/06 00:01:18;;;;;;;34.17;16.27;;;;;;;5.80;72.40;99484.09;5050763;28;20044;-66
2021/11/06 00:03:44;;;;;;;33.70;16.63;;;;;;;5.76;72.39;99472.03;5050761;28;20040;-66
2021/11/06 00:06:09;;;;;;;31.08;16.25;;;;;;;5.72;72.61;99476.28;5051196;28;20389;-68
2021/11/06 00:08:35;;;;;;;29.50;15.20;;;;;;;5.70;72.56;99481.16;5050558;28;20120;-66
2021/11/06 00:11:00;;;;;;;36.60;19.50;;;;;;;5.66;72.62;99480.81;5053272;28;20376;-66
2021/11/06 00:13:26;;;;;;;69.60;35.55;;;;;;;5.62;72.31;99490.50;5052646;28;20424;-66
2021/11/06 00:15:51;;;;;;;57.05;26.13;;;;;;;5.60;72.64;99479.03;5053491;28;20112;-65
2021/11/06 00:18:17;;;;;;;44.53;21.27;;;;;;;5.60;72.31;99481.75;5053928;28;20029;-66
2021/11/06 00:20:42;;;;;;;42.95;22.15;;;;;;;5.60;72.45;99487.19;5053180;28;20028;-66
2021/11/06 00:23:08;;;;;;;38.90;20.05;;;;;;;5.60;72.98;99485.28;5052049;28;20035;-66
2021/11/06 00:25:33;;;;;;;39.13;20.33;;;;;;;5.58;72.86;99484.69;5050993;28;20086;-68
2021/11/06 00:27:58;;;;;;;46.03;22.75;;;;;;;5.57;72.24;99487.66;5051584;28;20070;-67
2021/11/06 00:30:24;;;;;;;44.53;22.30;;;;;;;5.55;72.88;99485.16;5052181;28;20071;-67
2021/11/06 00:32:50;;;;;;;38.85;20.17;;;;;;;5.54;72.75;99479.97;5050171;28;20038;-67
2021/11/06 00:35:16;;;;;;;50.55;25.17;;;;;;;5.51;72.41;99484.84;5050675;28;20530;-67
2021/11/06 00:37:43;;;;;;;42.95;21.63;;;;;;;5.49;72.29;99478.78;5050806;28;20317;-66
2021/11/06 00:40:10;;;;;;;39.38;20.00;;;;;;;5.48;72.93;99488.03;5051328;28;20386;-66
2021/11/06 00:42:35;;;;;;;45.17;22.15;;;;;;;5.45;72.50;99488.50;5050879;28;20029;-65
2021/11/06 00:45:03;;;;;;;48.72;23.88;;;;;;;5.44;72.72;99488.75;5050474;28;20029;-65
2021/11/06 00:47:28;;;;;;;40.80;20.55;;;;;;;5.37;72.90;99480.69;5051072;28;20119;-64
2021/11/06 00:49:53;;;;;;;40.00;21.10;;;;;;;5.31;72.84;99490.63;5051420;28;20136;-65
2021/11/06 00:52:19;;;;;;;35.60;18.65;;;;;;;5.28;72.58;99488.38;5051426;28;20037;-65
2021/11/06 00:54:44;;;;;;;33.63;17.58;;;;;;;5.25;72.89;99491.56;5051506;28;20021;-65
2021/11/06 00:57:10;;;;;;;34.00;17.77;;;;;;;5.22;72.64;99484.72;5051301;28;20552;-64
2021/11/06 00:59:35;;;;;;;28.50;17.27;;;;;;;5.18;72.33;99485.41;5050524;28;20047;-65
2021/11/06 01:02:01;;;;;;;31.58;18.00;;;;;;;5.13;73.21;99491.56;5051858;28;20040;-66
2021/11/06 01:04:27;;;;;;;29.27;16.38;;;;;;;5.07;72.78;99490.63;5051400;28;20075;-65
2021/11/06 01:06:52;;;;;;;32.58;18.52;;;;;;;5.03;72.90;99496.75;5051687;28;20475;-66
2021/11/06 01:09:18;;;;;;;23.42;14.27;;;;;;;5.01;72.59;99494.28;5050916;28;20028;-65
2021/11/06 01:11:43;;;;;;;26.45;15.05;;;;;;;4.99;73.02;99492.84;5051137;28;20060;-66
2021/11/06 01:14:09;;;;;;;28.00;15.10;;;;;;;4.98;73.12;99497.47;5050196;28;20025;-65
2021/11/06 01:16:35;;;;;;;23.98;13.70;;;;;;;4.99;73.39;99490.13;5051831;28;21548;-66
2021/11/06 01:19:00;;;;;;;24.10;13.45;;;;;;;5.00;72.82;99487.19;5050715;28;20138;-66
2021/11/06 01:21:26;;;;;;;30.90;16.80;;;;;;;5.02;73.41;99495.09;5051797;28;20025;-66
2021/11/06 01:23:52;;;;;;;29.30;19.17;;;;;;;5.02;72.93;99493.22;5050277;28;20029;-66
2021/11/06 01:26:17;;;;;;;26.13;15.27;;;;;;;5.03;72.89;99491.31;5051114;28;20386;-66
2021/11/06 01:28:43;;;;;;;25.88;15.27;;;;;;;5.02;73.22;99498.66;5049416;28;20443;-65
2021/11/06 01:31:09;;;;;;;23.88;14.80;;;;;;;5.03;72.97;99497.59;5051445;28;20098;-66
2021/11/06 01:33:34;;;;;;;23.92;13.57;;;;;;;5.02;73.29;99500.53;5049902;28;20382;-65
2021/11/06 01:36:00;;;;;;;21.95;14.00;;;;;;;5.01;73.21;99494.28;5051093;28;20106;-66
2021/11/06 01:38:25;;;;;;;25.23;14.45;;;;;;;5.03;73.03;99496.75;5050879;28;20135;-66
2021/11/06 01:40:51;;;;;;;22.42;13.60;;;;;;;5.06;73.15;99497.13;5050545;28;20108;-66
2021/11/06 01:43:17;;;;;;;21.83;13.27;;;;;;;5.08;73.66;99488.72;5050370;28;20043;-64
2021/11/06 01:45:42;;;;;;;23.67;13.82;;;;;;;5.09;73.30;99505.88;5049935;28;20094;-66
2021/11/06 01:48:08;;;;;;;22.35;13.63;;;;;;;5.09;73.28;99497.72;5050477;28;20427;-65
2021/11/06 01:50:33;;;;;;;23.20;13.10;;;;;;;5.09;73.62;99503.97;5050724;28;20108;-65
2021/11/06 01:52:59;;;;;;;23.83;13.27;;;;;;;5.10;73.12;99504.78;5050500;28;20028;-65
2021/11/06 01:55:24;;;;;;;23.35;13.35;;;;;;;5.11;73.05;99504.56;5051068;28;20100;-65
2021/11/06 01:57:52;;;;;;;22.15;13.05;;;;;;;5.13;73.14;99504.31;5047383;28;20036;-65
2021/11/06 02:00:22;;;;;;;24.48;12.73;;;;;;;5.13;73.43;99504.31;5049645;28;21035;-65
2021/11/06 02:02:48;;;;;;;;;;;;;;;5.13;73.35;99505.16;5051604;28;20115;-66
2021/11/06 02:05:14;;;;;;;21.20;13.05;;;;;;;5.12;73.75;99500.78;5049426;28;19917;-65
2021/11/06 02:07:40;;;;;;;19.65;11.65;;;;;;;5.10;73.36;99502.06;5049946;28;20037;-65
2021/11/06 02:10:07;;;;;;;22.77;11.77;;;;;;;5.11;73.04;99503.72;5050712;28;20048;-65
2021/11/06 02:12:33;;;;;;;24.58;14.30;;;;;;;5.12;73.75;99502.66;5050455;28;20025;-65
2021/11/06 02:14:59;;;;;;;22.25;12.65;;;;;;;5.13;73.73;99512.47;5049529;28;20075;-65
2021/11/06 02:17:24;;;;;;;22.23;12.65;;;;;;;5.14;73.62;99497.81;5049927;28;20027;-66
2021/11/06 02:19:50;;;;;;;18.88;11.68;;;;;;;5.16;73.20;99488.38;5051923;28;20066;-66
2021/11/06 02:22:15;;;;;;;19.20;11.18;;;;;;;5.19;73.75;99506.09;5050076;28;20136;-64
2021/11/06 02:24:41;;;;;;;18.92;10.80;;;;;;;5.20;73.86;99502.31;5049873;28;20039;-65
2021/11/06 02:27:06;;;;;;;18.17;11.63;;;;;;;5.20;73.70;99503.16;5048952;28;20028;-65
2021/11/06 02:29:35;;;;;;;20.02;11.43;;;;;;;5.19;73.27;99509.66;5049719;28;20017;-64
2021/11/06 02:32:00;;;;;;;18.60;11.52;;;;;;;5.21;73.42;99496.66;5049930;28;20060;-66
2021/11/06 02:34:27;;;;;;;17.58;10.98;;;;;;;5.20;73.07;99503.16;5049598;28;20079;-65
2021/11/06 02:36:53;;;;;;;18.70;12.05;;;;;;;5.20;73.39;99496.88;5049805;28;20037;-66
2021/11/06 02:39:23;;;;;;;19.17;11.02;;;;;;;5.19;73.54;99498.78;5049308;28;20037;-65
2021/11/06 02:41:48;;;;;;;22.60;13.07;;;;;;;5.20;73.35;99505.03;5048247;28;20049;-65
2021/11/06 02:44:14;;;;;;;20.15;12.88;;;;;;;5.18;73.96;99505.28;5047826;28;20068;-66
2021/11/06 02:46:41;;;;;;;21.23;13.10;;;;;;;5.18;73.60;99508.00;5049590;28;20051;-65
2021/11/06 02:49:08;;;;;;;23.85;13.85;;;;;;;5.16;73.32;99501.97;5048958;28;20041;-65
2021/11/06 02:51:34;;;;;;;24.15;13.48;;;;;;;5.16;73.17;99517.44;5048079;28;20104;-65
2021/11/06 02:54:00;;;;;;;22.00;12.65;;;;;;;5.15;73.09;99505.75;5049122;28;20119;-65
2021/11/06 02:56:28;;;;;;;19.63;12.10;;;;;;;5.15;73.68;99515.78;5049041;28;20100;-65
2021/11/06 02:58:54;;;;;;;19.77;12.13;;;;;;;5.13;73.29;99510.59;5049663;28;20025;-65
2021/11/06 03:01:21;;;;;;;20.50;12.15;;;;;;;5.10;73.60;99516.50;5049276;28;20071;-65
2021/11/06 03:03:47;;;;;;;19.60;12.32;;;;;;;5.09;73.44;99508.59;5049233;28;20135;-65
2021/11/06 03:06:12;;;;;;;20.80;12.02;;;;;;;5.06;73.81;99510.72;5048702;28;20053;-65
2021/11/06 03:08:38;;;;;;;21.63;13.15;;;;;;;5.05;73.71;99509.06;5049719;28;20128;-65
2021/11/06 03:11:04;;;;;;;17.25;11.15;;;;;;;5.05;73.32;99505.50;5048187;28;20091;-65
2021/11/06 03:13:31;;;;;;;17.92;12.05;;;;;;;5.04;73.24;99512.00;5048883;28;20559;-66
2021/11/06 03:15:56;;;;;;;19.40;11.90;;;;;;;5.04;73.76;99518.28;5048276;28;20025;-65
2021/11/06 03:18:21;;;;;;;17.20;11.68;;;;;;;5.03;73.62;99516.63;5049343;28;20028;-65
2021/11/06 03:20:47;;;;;;;17.92;11.48;;;;;;;5.03;73.85;99515.78;5048639;28;20032;-64
2021/11/06 03:23:13;;;;;;;19.13;11.70;;;;;;;5.02;73.95;99511.41;5046846;28;20028;-64
2021/11/06 03:25:38;;;;;;;19.23;11.23;;;;;;;5.01;73.59;99518.75;5048627;28;20029;-65
2021/11/06 03:28:04;;;;;;;16.88;11.23;;;;;;;5.00;73.50;99508.09;5047915;28;20036;-65
2021/11/06 03:30:29;;;;;;;21.95;12.70;;;;;;;4.98;73.55;99512.94;5041820;28;20033;-65
2021/11/06 03:32:55;;;;;;;22.60;14.00;;;;;;;4.99;73.79;99522.75;5050426;28;20103;-65
2021/11/06 03:35:21;;;;;;;20.15;13.52;;;;;;;4.98;73.58;99515.66;5052729;28;20040;-65
2021/11/06 03:37:47;;;;;;;22.00;12.25;;;;;;;4.97;73.94;99517.56;5053279;28;20025;-64
2021/11/06 03:40:13;;;;;;;18.98;12.20;;;;;;;4.93;74.10;99521.78;5053308;28;20051;-64
2021/11/06 03:42:40;;;;;;;19.13;11.80;;;;;;;4.90;73.56;99524.97;5051309;28;20211;-64
2021/11/06 03:45:06;;;;;;;20.77;11.50;;;;;;;4.91;74.01;99523.91;5052332;28;20047;-65
2021/11/06 03:47:32;;;;;;;19.27;12.13;;;;;;;4.88;73.62;99535.25;5052791;28;20058;-64
2021/11/06 03:49:57;;;;;;;18.65;11.18;;;;;;;4.85;73.96;99533.84;5051927;28;20086;-65
2021/11/06 03:52:24;;;;;;;15.98;9.88;;;;;;;4.84;73.98;99536.78;5052908;28;20025;-65
2021/11/06 03:54:50;;;;;;;24.23;12.82;;;;;;;4.86;74.08;99537.38;5052374;28;20607;-64
2021/11/06 03:57:15;;;;;;;43.53;20.73;;;;;;;4.86;73.48;99535.50;5051575;28;20025;-65
2021/11/06 03:59:40;;;;;;;43.28;19.02;;;;;;;4.85;74.08;99531.13;5052192;28;20017;-65
2021/11/06 04:02:06;;;;;;;30.00;13.75;;;;;;;4.84;73.68;99539.50;5051057;28;20029;-65
2021/11/06 04:04:31;;;;;;;21.88;11.68;;;;;;;4.83;73.70;99540.56;5052431;28;20037;-65
2021/11/06 04:06:57;;;;;;;17.63;10.63;;;;;;;4.82;74.24;99545.19;5051422;28;20036;-65
2021/11/06 04:09:22;;;;;;;16.35;10.65;;;;;;;4.82;74.14;99541.59;5052722;28;20028;-65
2021/11/06 04:11:50;;;;;;;17.08;10.38;;;;;;;4.84;74.17;99544.94;5052319;28;20033;-65
2021/11/06 04:14:15;;;;;;;19.30;13.05;;;;;;;4.83;73.48;99546.00;5052161;28;20024;-65
2021/11/06 04:16:40;;;;;;;17.17;11.05;;;;;;;4.82;74.28;99544.31;5052912;28;20025;-66
2021/11/06 04:19:06;;;;;;;18.77;11.43;;;;;;;4.79;73.54;99548.34;5052837;28;20025;-66
2021/11/06 04:21:32;;;;;;;17.20;12.05;;;;;;;4.74;73.51;99556.38;5050974;28;20120;-65
2021/11/06 04:23:58;;;;;;;19.83;12.23;;;;;;;4.70;74.33;99547.81;5052112;28;20039;-65
2021/11/06 04:26:23;;;;;;;19.10;12.00;;;;;;;4.64;73.38;99554.22;5052452;28;20028;-65
2021/11/06 04:28:48;;;;;;;20.73;12.00;;;;;;;4.55;73.47;99561.81;5051946;28;20591;-65
2021/11/06 04:31:14;;;;;;;21.92;13.88;;;;;;;4.48;73.75;99563.81;5053093;28;20036;-65
2021/11/06 04:33:39;;;;;;;22.92;13.27;;;;;;;4.42;73.83;99568.28;5051445;28;20071;-65
2021/11/06 04:36:07;;;;;;;18.75;11.20;;;;;;;4.35;74.34;99570.22;5051939;28;20163;-65
2021/11/06 04:38:33;;;;;;;20.35;12.52;;;;;;;4.30;73.90;99570.94;5051965;28;20079;-65
2021/11/06 04:40:58;;;;;;;20.77;13.10;;;;;;;4.28;74.02;99570.31;5052651;28;20424;-66
2021/11/06 04:43:24;;;;;;;22.27;13.20;;;;;;;4.24;74.21;99573.72;5050830;28;20025;-65
2021/11/06 04:45:49;;;;;;;23.75;14.23;;;;;;;4.19;73.88;99576.28;5053087;28;20112;-65
2021/11/06 04:48:15;;;;;;;22.30;14.35;;;;;;;4.14;74.11;99585.09;5053046;28;20115;-65
2021/11/06 04:50:40;;;;;;;23.20;14.35;;;;;;;4.08;74.38;99578.69;5053396;28;20055;-65
2021/11/06 04:53:05;;;;;;;24.60;15.05;;;;;;;4.01;74.59;99578.78;5053816;28;20147;-65
2021/11/06 04:55:31;;;;;;;24.75;14.15;;;;;;;3.96;74.09;99581.34;5053173;28;20049;-66
2021/11/06 04:57:56;;;;;;;23.35;13.57;;;;;;;3.91;74.71;99588.47;5052272;28;20029;-66
2021/11/06 05:00:22;;;;;;;25.73;15.00;;;;;;;3.82;74.26;99577.09;5052488;28;20110;-65
2021/11/06 05:02:47;;;;;;;24.35;13.82;;;;;;;3.76;74.99;99577.97;5053139;28;20440;-66
2021/11/06 05:05:13;;;;;;;25.27;13.18;;;;;;;3.69;75.18;99580.78;5051592;28;20473;-66
2021/11/06 05:07:38;;;;;;;25.27;14.25;;;;;;;3.62;75.48;99582.72;5053454;28;20083;-66
2021/11/06 05:10:05;;;;;;;22.10;12.43;;;;;;;3.56;75.04;99587.97;5052727;28;20493;-66
2021/11/06 05:12:31;;;;;;;27.35;14.60;;;;;;;3.50;75.23;99583.44;5052618;28;20116;-66
2021/11/06 05:14:56;;;;;;;21.52;13.25;;;;;;;3.47;75.19;99585.75;5052017;28;20043;-66
2021/11/06 05:17:21;;;;;;;22.52;13.23;;;;;;;3.41;75.13;99584.78;5052992;28;20532;-66
2021/11/06 05:19:47;;;;;;;24.52;14.45;;;;;;;3.35;74.97;99585.66;5053141;28;20104;-66
2021/11/06 05:22:14;;;;;;;26.67;16.77;;;;;;;3.30;75.91;99586.31;5053076;28;20112;-66
2021/11/06 05:24:39;;;;;;;25.45;15.48;;;;;;;3.25;75.57;99594.28;5052407;28;20477;-66
2021/11/06 05:27:06;;;;;;;29.42;16.33;;;;;;;3.21;76.09;99598.50;5052321;28;20064;-66
2021/11/06 05:29:32;;;;;;;27.38;14.32;;;;;;;3.18;75.88;99601.63;5051899;28;20531;-66
2021/11/06 05:31:58;;;;;;;26.08;15.90;;;;;;;3.15;76.75;99600.19;5052008;28;20029;-66
2021/11/06 05:34:23;;;;;;;29.08;17.35;;;;;;;3.08;75.85;99602.09;5052636;28;20094;-66
2021/11/06 05:36:49;;;;;;;27.65;16.23;;;;;;;3.07;76.65;99608.56;5052761;28;20361;-66
2021/11/06 05:39:14;;;;;;;28.23;17.00;;;;;;;3.02;76.04;99606.53;5052454;28;20107;-66
2021/11/06 05:41:40;;;;;;;24.05;14.00;;;;;;;3.01;75.84;99612.19;5052087;28;20137;-65
2021/11/06 05:44:05;;;;;;;27.92;15.38;;;;;;;2.99;76.52;99612.38;5051835;28;20013;-66
2021/11/06 05:46:31;;;;;;;31.02;16.55;;;;;;;2.98;76.95;99616.13;5050930;28;20039;-66
2021/11/06 05:48:57;;;;;;;32.47;17.45;;;;;;;2.97;76.75;99623.44;5051955;28;20036;-66
2021/11/06 05:51:23;;;;;;;33.03;18.98;;;;;;;2.94;76.17;99621.19;5051266;28;20082;-66
2021/11/06 05:53:49;;;;;;;35.20;20.80;;;;;;;2.93;76.58;99619.50;5050068;28;20048;-65
2021/11/06 05:56:15;;;;;;;32.72;17.65;;;;;;;2.92;76.79;99625.97;5050633;28;20477;-67
2021/11/06 05:58:41;;;;;;;32.28;17.67;;;;;;;2.90;76.59;99628.06;5048993;28;20370;-66
2021/11/06 06:01:06;;;;;;;29.05;16.33;;;;;;;2.89;77.53;99628.28;5051376;28;20070;-66
2021/11/06 06:03:32;;;;;;;35.85;22.58;;;;;;;2.89;77.16;99631.81;5050844;28;20033;-66
2021/11/06 06:05:58;;;;;;;49.88;33.38;;;;;;;2.88;76.70;99629.31;5051001;28;20108;-66
2021/11/06 06:08:24;;;;;;;40.85;25.27;;;;;;;2.88;76.76;99637.44;5051201;28;20118;-65
2021/11/06 06:10:50;;;;;;;31.83;19.38;;;;;;;2.87;77.14;99638.50;5050549;28;20063;-66
2021/11/06 06:13:15;;;;;;;27.98;16.30;;;;;;;2.87;76.31;99646.63;5050894;28;20029;-66
2021/11/06 06:15:41;;;;;;;32.50;17.70;;;;;;;2.86;76.54;99643.09;5050813;28;20381;-66
2021/11/06 06:18:06;;;;;;;33.65;18.58;;;;;;;2.90;76.94;99646.19;5049650;28;20064;-66
2021/11/06 06:20:32;;;;;;;30.60;17.70;;;;;;;2.92;76.75;99653.06;5050599;28;20028;-65
2021/11/06 06:22:57;;;;;;;36.85;19.45;;;;;;;2.94;77.48;99650.97;5050252;28;20063;-65
2021/11/06 06:25:26;;;;;;;34.13;18.60;;;;;;;2.97;76.67;99660.53;5050123;28;20438;-66
2021/11/06 06:27:51;;;;;;;30.85;17.30;;;;;;;3.00;77.26;99659.31;5049485;28;20059;-65
2021/11/06 06:30:18;;;;;;;29.20;16.92;;;;;;;3.05;77.34;99659.47;5050929;28;20072;-67
2021/11/06 06:32:44;;;;;;;31.65;16.83;;;;;;;3.09;77.62;99658.81;5050452;28;20021;-67
2021/11/06 06:35:11;;;;;;;33.63;17.85;;;;;;;3.18;77.88;99664.81;5050995;28;20091;-64
2021/11/06 06:37:37;;;;;;;33.75;18.70;;;;;;;3.22;78.27;99668.75;5050528;28;20037;-65
2021/11/06 06:40:05;;;;;;;36.22;20.95;;;;;;;3.30;77.51;99674.97;5050890;28;20401;-65
2021/11/06 06:42:31;;;;;;;34.80;20.67;;;;;;;3.37;77.49;99667.63;5048746;28;20032;-65
2021/11/06 06:44:56;;;;;;;39.22;24.67;;;;;;;3.41;77.61;99674.28;5050681;28;20033;-66
2021/11/06 06:47:22;;;;;;;33.35;19.35;;;;;;;3.47;78.22;99675.28;5050509;28;20084;-66
2021/11/06 06:49:48;;;;;;;34.33;19.58;;;;;;;3.53;77.59;99677.91;5050538;28;20404;-65
2021/11/06 06:52:14;;;;;;;35.35;19.27;;;;;;;3.63;77.49;99684.75;5049639;28;20466;-64
2021/11/06 06:54:39;;;;;;;36.95;19.58;;;;;;;3.68;77.92;99690.34;5049233;28;20060;-65
2021/11/06 06:57:05;;;;;;;33.53;18.20;;;;;;;3.75;77.50;99684.84;5049581;28;20354;-65
2021/11/06 06:59:35;;;;;;;35.15;20.13;;;;;;;3.79;77.59;99681.50;5049553;28;20416;-65
2021/11/06 07:02:01;;;;;;;38.03;22.08;;;;;;;3.85;77.81;99690.63;5048725;28;20025;-65
2021/11/06 07:04:27;;;;;;;42.50;22.27;;;;;;;3.94;77.09;99691.19;5050127;28;20033;-65
2021/11/06 07:06:53;;;;;;;34.70;20.00;;;;;;;4.01;77.15;99681.09;5049594;28;20075;-65
2021/11/06 07:09:19;;;;;;;31.20;17.90;;;;;;;4.09;77.71;99686.25;5049607;28;20031;-65
2021/11/06 07:11:45;;;;;;;34.38;20.20;;;;;;;4.14;76.87;99686.41;5048563;28;20024;-66
2021/11/06 07:14:10;;;;;;;38.58;21.08;;;;;;;4.17;76.94;99687.84;5048968;28;20535;-65
2021/11/06 07:16:36;;;;;;;38.25;21.60;;;;;;;4.23;76.76;99686.94;5047229;28;20040;-66
2021/11/06 07:19:02;;;;;;;44.03;25.33;;;;;;;4.27;76.57;99695.50;5048615;28;20029;-66
2021/11/06 07:21:27;;;;;;;44.50;23.58;;;;;;;4.34;76.63;99703.56;5046854;28;20040;-66
2021/11/06 07:23:53;;;;;;;49.15;27.00;;;;;;;4.40;76.79;99699.94;5048338;28;20078;-66
2021/11/06 07:26:18;;;;;;;44.22;24.52;;;;;;;4.44;76.97;99701.97;5049849;28;20427;-65
2021/11/06 07:28:44;;;;;;;44.90;25.45;;;;;;;4.54;76.65;99697.91;5050160;28;20032;-65
2021/11/06 07:31:09;;;;;;;46.75;27.05;;;;;;;4.62;76.91;99701.16;5050627;28;20037;-66
2021/11/06 07:33:34;;;;;;;43.05;24.20;;;;;;;4.70;76.29;99693.75;5049083;28;20068;-65
2021/11/06 07:36:00;;;;;;;46.65;24.77;;;;;;;4.81;76.62;99700.31;5050089;28;20404;-66
2021/11/06 07:38:25;;;;;;;42.83;23.08;;;;;;;4.90;75.97;99701.69;5049503;28;20061;-65
2021/11/06 07:40:51;;;;;;;43.80;23.38;;;;;;;4.99;76.02;99700.31;5050247;28;20047;-65
2021/11/06 07:43:16;;;;;;;37.75;20.25;;;;;;;5.10;75.64;99709.59;5049739;28;20516;-65
2021/11/06 07:45:42;;;;;;;37.08;19.67;;;;;;;5.16;76.28;99703.22;5049984;28;20059;-64
2021/11/06 07:48:07;;;;;;;48.05;25.33;;;;;;;5.29;75.91;99712.28;5050208;28;20029;-66
2021/11/06 07:50:33;;;;;;;43.78;22.52;;;;;;;5.40;76.01;99710.66;5049905;28;20032;-66
2021/11/06 07:52:58;;;;;;;39.05;20.40;;;;;;;5.48;75.56;99710.34;5049247;28;20098;-66
2021/11/06 07:55:24;;;;;;;31.45;19.33;;;;;;;5.54;75.12;99714.00;5048955;28;20021;-65
2021/11/06 07:57:49;;;;;;;35.53;19.20;;;;;;;5.56;74.35;99712.69;5050293;28;20163;-65
2021/11/06 08:00:18;;;;;;;31.13;17.80;;;;;;;5.58;74.64;99718.75;5049583;28;20148;-66
2021/11/06 08:02:44;;;;;;;39.97;21.08;;;;;;;5.62;74.56;99716.41;5050580;28;20566;-67
2021/11/06 08:05:11;;;;;;;42.97;23.00;;;;;;;5.68;74.72;99718.19;5046544;28;20249;-66
2021/11/06 08:07:36;;;;;;;38.08;20.95;;;;;;;5.75;74.47;99712.63;5044519;28;20044;-67
2021/11/06 08:10:04;;;;;;;38.42;20.88;;;;;;;5.81;74.59;99709.81;5047671;28;20029;-66
2021/11/06 08:12:30;;;;;;;28.98;15.98;;;;;;;5.87;73.96;99727.13;5048871;28;20029;-67
2021/11/06 08:14:56;;;;;;;33.35;19.15;;;;;;;5.94;73.83;99721.56;5048893;28;20075;-66
2021/11/06 08:17:22;;;;;;;27.25;15.68;;;;;;;5.98;74.01;99720.03;5049671;28;20507;-66
2021/11/06 08:19:47;;;;;;;27.63;16.08;;;;;;;6.04;73.29;99721.00;5051882;28;20040;-67
2021/11/06 08:22:13;;;;;;;27.08;15.52;;;;;;;6.10;73.22;99714.63;5052138;28;20572;-66
2021/11/06 08:24:39;;;;;;;24.83;14.48;;;;;;;6.15;73.05;99720.19;5052126;28;20477;-67
2021/11/06 08:27:05;;;;;;;25.77;13.82;;;;;;;6.19;73.05;99717.81;5052360;28;20013;-66
2021/11/06 08:29:31;;;;;;;24.70;14.95;;;;;;;6.23;73.28;99722.56;5052472;28;20515;-67
2021/11/06 08:31:58;;;;;;;33.20;20.48;;;;;;;6.31;72.89;99728.72;5052567;28;20017;-66
2021/11/06 08:34:28;;;;;;;35.05;20.02;;;;;;;6.38;72.48;99730.25;5052412;28;20049;-66
2021/11/06 08:36:55;;;;;;;25.75;13.80;;;;;;;6.42;72.34;99722.44;5052829;28;20024;-66
2021/11/06 08:39:21;;;;;;;23.95;14.05;;;;;;;6.44;71.93;99725.75;5052333;28;20116;-66
2021/11/06 08:41:48;;;;;;;22.83;13.18;;;;;;;6.48;72.08;99721.50;5052346;28;20017;-66
2021/11/06 08:44:18;;;;;;;23.15;13.85;;;;;;;6.51;72.10;99715.56;5052445;28;20021;-66
2021/11/06 08:46:45;;;;;;;25.67;16.20;;;;;;;6.60;72.29;99721.47;5052281;28;20036;-66
2021/11/06 08:49:14;;;;;;;20.35;11.77;;;;;;;6.67;72.01;99733.09;5052065;28;20036;-67
2021/11/06 08:51:45;;;;;;;26.45;15.30;;;;;;;6.70;71.98;99724.44;5052526;28;20017;-67
2021/11/06 08:54:10;;;;;;;25.17;15.60;;;;;;;6.75;71.28;99725.59;5052186;28;20021;-66
2021/11/06 08:56:36;;;;;;;21.02;13.48;;;;;;;6.79;71.45;99724.88;5051805;28;20029;-67
2021/11/06 08:59:02;;;;;;;28.17;16.50;;;;;;;6.83;71.50;99728.78;5050742;28;20096;-67
2021/11/06 09:01:27;;;;;;;23.40;14.82;;;;;;;6.89;71.27;99726.16;5050872;28;20029;-67
2021/11/06 09:03:53;;;;;;;22.95;14.73;;;;;;;6.93;71.04;99735.53;5051827;28;20024;-67
2021/11/06 09:06:19;;;;;;;27.92;17.40;;;;;;;7.02;71.19;99725.91;5051626;28;20029;-66
2021/11/06 09:08:46;;;;;;;29.85;18.00;;;;;;;7.12;71.08;99742.50;5051664;28;20037;-67
2021/11/06 09:11:12;;;;;;;22.83;14.32;;;;;;;7.21;70.84;99740.19;5050268;28;20017;-65
2021/11/06 09:13:40;;;;;;;26.70;17.73;;;;;;;7.26;70.33;99736.72;5051726;28;20025;-65
2021/11/06 09:16:09;;;;;;;23.38;14.70;;;;;;;7.33;69.90;99742.88;5050579;28;20021;-66
2021/11/06 09:18:35;;;;;;;24.27;14.25;;;;;;;7.37;69.40;99735.88;5051621;28;20037;-66
2021/11/06 09:21:01;;;;;;;23.42;13.88;;;;;;;7.40;69.28;99735.38;5052656;28;20059;-66
2021/11/06 09:23:29;;;;;;;22.50;13.02;;;;;;;7.44;69.23;99736.56;5051640;28;20025;-66
2021/11/06 09:25:54;;;;;;;24.05;14.90;;;;;;;7.50;68.85;99729.28;5047647;28;20048;-65
2021/11/06 09:28:19;;;;;;;20.77;13.63;;;;;;;7.56;68.44;99743.84;5051281;28;20041;-67
2021/11/06 09:30:45;;;;;;;21.17;12.55;;;;;;;7.59;68.49;99736.00;5051204;28;20100;-66
2021/11/06 09:33:10;;;;;;;25.38;14.48;;;;;;;7.66;68.83;99737.75;5051456;28;20052;-66
2021/11/06 09:35:36;;;;;;;22.33;13.02;;;;;;;7.76;68.46;99732.47;5050768;28;20426;-66
2021/11/06 09:38:02;;;;;;;26.27;15.20;;;;;;;7.86;69.20;99738.09;5051439;28;20025;-70
2021/11/06 09:40:27;;;;;;;25.90;15.20;;;;;;;8.01;68.32;99732.06;5051404;28;20021;-67
2021/11/06 09:42:52;;;;;;;19.20;12.07;;;;;;;8.11;67.48;99736.06;5050619;28;20025;-67
2021/11/06 09:45:18;;;;;;;21.40;13.43;;;;;;;8.18;68.02;99726.59;5050557;28;20060;-67
2021/11/06 09:47:44;;;;;;;18.73;12.00;;;;;;;8.27;68.33;99737.97;5051161;28;20047;-67
2021/11/06 09:50:19;;;;;;;19.35;12.23;;;;;;;8.33;66.73;99734.25;5051357;28;20533;-68
2021/11/06 09:52:49;;;;;;;18.15;11.10;;;;;;;8.33;65.89;99730.66;5051400;28;20029;-67
2021/11/06 09:55:20;;;;;;;18.40;11.32;;;;;;;8.34;65.17;99729.59;5051384;28;20025;-67
2021/11/06 09:57:46;;;;;;;17.17;10.90;;;;;;;8.32;65.57;99718.91;5051380;28;20029;-67
2021/11/06 10:00:13;;;;;;;20.15;13.13;;;;;;;8.40;66.10;99733.22;5051382;28;20138;-66
2021/11/06 10:02:39;;;;;;;19.33;12.55;;;;;;;8.47;66.31;99725.66;5050344;28;20029;-67
2021/11/06 10:05:05;;;;;;;21.88;13.38;;;;;;;8.59;66.45;99718.22;5051177;28;20051;-67
2021/11/06 10:07:32;;;;;;;21.08;14.40;;;;;;;8.69;65.85;99716.72;5051647;28;20385;-67
2021/11/06 10:10:05;;;;;;;18.00;11.40;;;;;;;8.77;65.52;99716.25;5052121;28;20079;-66
2021/11/06 10:12:47;;;;;;;20.23;11.43;;;;;;;8.87;65.15;99710.13;5049470;28;20033;-67
2021/11/06 10:15:13;;;;;;;21.00;13.48;;;;;;;8.96;65.23;99705.88;5050333;28;20075;-67
2021/11/06 10:17:39;;;;;;;20.20;12.25;;;;;;;9.01;64.90;99711.38;5050710;28;20091;-67
2021/11/06 10:20:28;;;;;;;17.77;11.70;;;;;;;9.07;65.28;99701.34;5051263;28;20664;-66
2021/11/06 10:22:55;;;;;;;15.73;8.55;;;;;;;9.12;63.69;99703.28;5037541;28;20018;-67
2021/11/06 10:25:22;;;;;;;18.08;10.90;;;;;;;9.14;64.11;99698.38;5031490;28;20102;-66
2021/11/06 10:27:58;;;;;;;20.15;12.00;;;;;;;9.16;64.59;99696.22;5020618;28;20034;-67
2021/11/06 10:30:27;;;;;;;15.98;10.02;;;;;;;9.19;62.98;99690.25;5027199;28;20108;-66
2021/11/06 10:32:57;;;;;;;17.10;10.27;;;;;;;9.27;64.17;99691.69;5026099;28;20032;-67
2021/11/06 10:35:24;;;;;;;;;;;;;;;9.32;63.61;99697.22;5027246;28;20029;-67
2021/11/06 10:37:59;;;;;;;16.60;8.18;;;;;;;9.28;62.63;99687.88;5024752;28;20288;-66
2021/11/06 10:40:30;;;;;;;15.25;9.60;;;;;;;9.24;61.41;99693.84;5025653;28;20025;-67
2021/11/06 10:42:57;;;;;;;15.02;10.30;;;;;;;9.21;62.24;99683.41;5024433;28;20033;-67
2021/11/06 10:45:27;;;;;;;14.82;9.65;;;;;;;9.24;62.29;99679.34;5014684;28;20579;-67
2021/11/06 10:48:06;;;;;;;12.80;7.50;;;;;;;9.27;61.29;99680.72;5016402;28;20611;-67
2021/11/06 10:50:54;;;;;;;13.35;8.60;;;;;;;9.28;61.43;99676.91;5023707;28;20143;-66
2021/11/06 10:53:46;;;;;;;13.25;9.00;;;;;;;9.31;61.76;99671.75;5025219;28;20139;-67
2021/11/06 10:56:18;;;;;;;12.15;8.40;;;;;;;9.38;60.33;99661.41;5025670;28;20045;-66
2021/11/06 10:58:45;;;;;;;15.27;9.43;;;;;;;9.41;62.02;99675.66;5024379;28;20022;-65
2021/11/06 11:01:16;;;;;;;16.10;9.52;;;;;;;9.44;61.79;99669.69;5025504;28;20068;-66
2021/11/06 11:03:44;;;;;;;15.18;9.75;;;;;;;9.49;61.70;99665.09;5025058;28;20057;-67
2021/11/06 11:06:17;;;;;;;15.88;9.30;;;;;;;9.55;59.82;99663.22;5016996;28;20191;-66
2021/11/06 11:08:50;;;;;;;13.77;8.77;;;;;;;9.57;60.54;99671.19;5016005;28;20043;-67
2021/11/06 11:11:19;;;;;;;12.30;8.75;;;;;;;9.59;59.46;99669.00;5021022;28;20064;-67
2021/11/06 11:13:52;;;;;;;12.40;7.85;;;;;;;9.61;59.53;99659.44;5025753;28;20473;-67
2021/11/06 11:16:19;;;;;;;14.68;9.05;;;;;;;9.68;59.82;99654.59;5025248;28;20029;-67
2021/11/06 11:18:47;;;;;;;13.48;7.93;;;;;;;9.72;59.33;99654.06;5025642;28;20790;-67
2021/11/06 11:21:12;;;;;;;12.43;6.97;;;;;;;9.78;61.00;99642.88;5024795;28;20065;-64
2021/11/06 11:23:40;;;;;;;9.23;6.47;;;;;;;9.86;58.75;99647.03;5025482;28;20515;-65